Time;durP1;ratioP1;P1;durP2;ratioP2;P2;SDS_P1;SDS_P2;PMS_P1;PMS_P2;Temp;Humidity;BMP_temperature;BMP_pressure;BME280_temperature;BME280_humidity;BME280_pressure;Samples;Min_cycle;Max_cycle;Signal;HPM_P1;HPM_P2
2023/12/09 00:02:22;;;;;;;162.70;74.72;;;;;;;5.08;84.47;101383.50;4968712;28;20258;-81
2023/12/09 00:04:50;;;;;;;168.55;75.78;;;;;;;4.91;84.71;101360.72;4988118;28;20290;-80
2023/12/09 00:07:24;;;;;;;178.02;79.75;;;;;;;5.07;84.69;101392.31;4973986;28;20534;-81
2023/12/09 00:09:59;;;;;;;164.85;77.60;;;;;;;4.96;84.81;101363.94;4972015;28;20495;-80
2023/12/09 00:12:26;;;;;;;164.18;75.03;;;;;;;4.96;84.36;101368.34;5017048;28;20521;-79
2023/12/09 00:15:01;;;;;;;174.23;79.45;;;;;;;5.13;85.01;101405.16;5019983;28;20061;-80
2023/12/09 00:17:29;;;;;;;163.88;75.53;;;;;;;5.14;84.98;101402.41;5016407;28;20325;-80
2023/12/09 00:19:59;;;;;;;166.38;78.28;;;;;;;4.98;85.08;101387.56;4995462;28;20065;-80
2023/12/09 00:22:27;;;;;;;177.40;79.15;;;;;;;5.08;85.12;101394.03;5019618;28;20136;-79
2023/12/09 00:24:56;;;;;;;167.13;76.07;;;;;;;5.06;84.70;101401.13;5004474;28;20050;-81
2023/12/09 00:27:24;;;;;;;169.90;79.40;;;;;;;4.79;84.70;101359.56;4989933;28;20259;-79
2023/12/09 00:29:56;;;;;;;180.38;77.90;;;;;;;4.83;85.35;101362.88;4988762;28;20514;-80
2023/12/09 00:32:23;;;;;;;177.80;83.50;;;;;;;4.85;85.24;101367.13;4996070;28;20045;-81
2023/12/09 00:34:50;;;;;;;180.65;80.40;;;;;;;4.84;85.62;101370.69;4994233;28;20132;-80
2023/12/09 00:37:17;;;;;;;180.45;81.18;;;;;;;5.06;85.79;101406.41;4991935;28;20049;-81
2023/12/09 00:39:44;;;;;;;172.65;78.43;;;;;;;4.65;85.83;101348.91;5004186;28;20050;-80
2023/12/09 00:42:13;;;;;;;164.40;77.55;;;;;;;4.58;85.97;101331.75;4996368;28;20050;-81
2023/12/09 00:44:40;;;;;;;167.75;76.72;;;;;;;4.66;85.71;101340.09;4993041;28;20555;-81
2023/12/09 00:47:07;;;;;;;183.75;82.60;;;;;;;5.10;85.78;101413.22;4998516;28;20045;-80
2023/12/09 00:49:34;;;;;;;162.23;77.68;;;;;;;4.59;85.01;101325.59;4994041;28;20075;-81
2023/12/09 00:52:11;;;;;;;166.10;76.55;;;;;;;5.07;85.26;101402.81;4971281;28;20486;-82
2023/12/09 00:54:50;;;;;;;171.00;80.50;;;;;;;5.11;85.24;101409.63;4938589;28;20081;-81
2023/12/09 00:57:17;;;;;;;162.60;76.28;;;;;;;5.08;85.46;101410.66;4980028;28;20056;-83
2023/12/09 00:59:47;;;;;;;170.57;77.53;;;;;;;5.03;84.66;101388.16;4981845;28;20045;-82
2023/12/09 01:02:14;;;;;;;155.88;75.93;;;;;;;4.95;84.99;101366.63;4992096;28;20068;-82
2023/12/09 01:04:41;;;;;;;161.68;77.15;;;;;;;4.98;85.05;101382.28;4992752;28;20478;-82
2023/12/09 01:07:11;;;;;;;158.88;74.22;;;;;;;4.83;84.84;101352.34;4995797;28;20048;-82
2023/12/09 01:09:37;;;;;;;165.30;75.93;;;;;;;5.10;84.88;101386.91;4982582;28;20499;-81
2023/12/09 01:12:04;;;;;;;160.77;75.28;;;;;;;5.09;84.65;101393.91;4962792;28;20450;-80
2023/12/09 01:14:42;;;;;;;161.20;76.53;;;;;;;4.94;84.18;101355.28;4984671;28;20372;-83
2023/12/09 01:17:11;;;;;;;160.07;75.88;;;;;;;5.16;84.87;101397.09;4951879;28;20065;-82
2023/12/09 01:19:38;;;;;;;164.73;78.80;;;;;;;4.66;84.58;101303.25;4988242;28;20561;-82
2023/12/09 01:22:04;;;;;;;164.45;79.22;;;;;;;5.09;84.14;101380.75;4990617;28;20053;-80
2023/12/09 01:24:37;;;;;;;155.80;74.43;;;;;;;4.94;84.40;101371.06;4984623;28;20126;-82
2023/12/09 01:27:04;;;;;;;167.07;78.55;;;;;;;5.15;84.96;101405.91;4994013;28;20156;-82
2023/12/09 01:29:30;;;;;;;179.95;78.82;;;;;;;5.15;84.73;101405.91;4985858;28;20064;-81
2023/12/09 01:31:57;;;;;;;172.70;77.15;;;;;;;5.24;84.81;101420.34;4990807;28;20785;-82
2023/12/09 01:34:24;;;;;;;170.75;76.85;;;;;;;5.25;84.23;101420.28;4988128;28;20088;-82
2023/12/09 01:36:51;;;;;;;163.73;75.68;;;;;;;4.56;83.36;101275.75;4992810;28;20053;-81
2023/12/09 01:39:18;;;;;;;160.23;75.43;;;;;;;5.13;83.69;101397.25;4966545;28;20052;-82
2023/12/09 01:41:44;;;;;;;168.95;79.85;;;;;;;5.28;84.14;101421.91;4987712;28;20053;-82
2023/12/09 01:44:18;;;;;;;162.98;77.10;;;;;;;4.64;83.82;101308.63;4956793;28;20053;-83
2023/12/09 01:46:50;;;;;;;162.82;77.38;;;;;;;4.16;83.56;101238.44;4970141;28;20124;-82
2023/12/09 01:49:25;;;;;;;170.40;78.22;;;;;;;4.02;83.65;101224.22;4953819;28;20649;-82
2023/12/09 01:52:01;;;;;;;180.25;82.82;;;;;;;4.99;83.86;101373.44;4948935;28;20123;-82
2023/12/09 01:54:44;;;;;;;170.85;79.53;;;;;;;4.02;83.69;101223.38;4944340;28;20353;-82
2023/12/09 01:57:29;;;;;;;181.02;83.53;;;;;;;5.33;83.23;101433.88;4944709;28;20333;-82
2023/12/09 02:00:16;;;;;;;180.23;79.85;;;;;;;5.15;83.65;101400.66;4917177;28;20318;-83
2023/12/09 02:02:58;;;;;;;175.00;81.57;;;;;;;5.21;83.74;101420.53;4936526;28;20492;-82
2023/12/09 02:05:33;;;;;;;166.43;78.72;;;;;;;5.01;83.83;101398.75;4935013;28;20123;-82
2023/12/09 02:08:06;;;;;;;161.68;76.72;;;;;;;5.24;83.36;101430.88;4930283;28;20356;-83
2023/12/09 02:10:41;;;;;;;168.82;80.47;;;;;;;5.32;82.72;101436.63;4916464;28;20646;-82
2023/12/09 02:13:52;;;;;;;;;;;;;;;5.23;82.10;101434.47;4969875;28;20053;-83
2023/12/09 02:16:25;;;;;;;156.02;72.13;;;;;;;5.13;81.64;101416.53;4991350;28;20008;-82
2023/12/09 02:18:53;;;;;;;161.95;75.93;;;;;;;5.20;82.04;101426.75;4983961;28;20303;-81
2023/12/09 02:21:20;;;;;;;156.10;71.68;;;;;;;5.20;81.57;101439.91;5004733;28;20061;-79
2023/12/09 02:23:47;;;;;;;168.63;76.07;;;;;;;5.11;81.30;101422.81;4989299;28;20124;-83
2023/12/09 02:26:20;;;;;;;165.18;77.43;;;;;;;5.15;81.64;101426.97;4992048;28;20057;-82
2023/12/09 02:28:55;;;;;;;166.88;79.30;;;;;;;5.21;81.83;101437.16;4991834;28;20068;-82
2023/12/09 02:31:33;;;;;;;153.98;70.18;;;;;;;5.07;82.58;101439.69;4984515;28;20049;-82
2023/12/09 02:34:01;;;;;;;159.48;76.70;;;;;;;5.11;82.97;101446.50;4999400;28;20399;-83
2023/12/09 02:36:30;;;;;;;155.35;72.78;;;;;;;5.08;82.58;101430.88;5015115;28;20241;-83
2023/12/09 02:39:03;;;;;;;159.23;74.65;;;;;;;5.06;83.20;101414.31;4988381;28;20056;-82
2023/12/09 02:41:31;;;;;;;148.40;71.75;;;;;;;5.26;82.43;101444.81;4985721;28;20356;-83
2023/12/09 02:44:04;;;;;;;151.98;74.13;;;;;;;5.21;82.36;101447.69;5001530;28;20046;-82
2023/12/09 02:46:31;;;;;;;158.10;74.55;;;;;;;5.02;82.45;101420.66;4985073;28;20045;-82
2023/12/09 02:49:01;;;;;;;153.68;73.63;;;;;;;5.00;82.18;101407.59;5002067;28;20131;-81
2023/12/09 02:51:32;;;;;;;143.85;72.15;;;;;;;4.95;82.17;101390.31;4991270;28;20465;-83
2023/12/09 02:54:00;;;;;;;157.00;71.28;;;;;;;4.93;82.04;101401.78;4990993;28;20136;-82
2023/12/09 02:56:27;;;;;;;156.38;72.75;;;;;;;5.19;82.39;101440.81;4966381;28;20049;-82
2023/12/09 02:58:53;;;;;;;144.07;69.40;;;;;;;5.22;82.09;101451.16;4990652;28;20060;-81
2023/12/09 03:01:20;;;;;;;143.95;67.63;;;;;;;5.28;82.13;101459.59;5000325;28;20053;-82
2023/12/09 03:03:50;;;;;;;134.55;68.47;;;;;;;5.09;81.49;101429.91;4970280;28;20136;-81
2023/12/09 03:06:17;;;;;;;150.68;68.20;;;;;;;5.25;81.42;101462.41;4994359;28;21101;-83
2023/12/09 03:08:43;;;;;;;140.95;67.07;;;;;;;5.18;81.22;101431.22;4979968;28;20550;-82
2023/12/09 03:11:10;;;;;;;143.18;69.32;;;;;;;5.16;81.17;101439.19;4988780;28;20623;-82
2023/12/09 03:13:37;;;;;;;144.50;69.70;;;;;;;5.34;81.36;101469.81;4993351;28;20500;-83
2023/12/09 03:16:06;;;;;;;147.85;69.70;;;;;;;5.23;81.20;101452.91;4969249;28;20053;-82
2023/12/09 03:18:32;;;;;;;141.15;68.50;;;;;;;5.29;81.62;101468.34;5019274;28;20183;-83
2023/12/09 03:21:03;;;;;;;141.52;67.47;;;;;;;5.29;81.16;101471.84;4993835;28;20265;-83
2023/12/09 03:23:30;;;;;;;136.63;67.65;;;;;;;5.19;81.29;101449.56;4999248;28;20399;-82
2023/12/09 03:25:59;;;;;;;137.80;62.70;;;;;;;5.31;81.22;101491.03;4967671;28;20045;-82
2023/12/09 03:28:26;;;;;;;139.75;67.03;;;;;;;5.33;81.16;101481.28;4977209;28;20049;-80
2023/12/09 03:30:57;;;;;;;134.38;65.75;;;;;;;5.37;80.61;101452.16;5001347;28;20041;-82
2023/12/09 03:33:27;;;;;;;132.30;62.05;;;;;;;5.35;79.93;101460.97;4983130;28;20056;-82
2023/12/09 03:35:54;;;;;;;136.73;64.93;;;;;;;5.31;80.15;101461.22;4992259;28;20338;-82
2023/12/09 03:38:21;;;;;;;141.35;67.70;;;;;;;5.30;80.97;101457.75;4973858;28;20141;-82
2023/12/09 03:40:48;;;;;;;150.60;68.95;;;;;;;5.38;80.41;101482.81;4995267;28;20045;-82
2023/12/09 03:43:17;;;;;;;140.02;67.32;;;;;;;5.22;80.16;101448.53;4991535;28;20049;-82
2023/12/09 03:45:43;;;;;;;136.73;64.82;;;;;;;5.11;79.85;101428.06;5003649;28;20423;-82
2023/12/09 03:48:14;;;;;;;140.00;65.70;;;;;;;5.32;80.62;101476.09;4973545;28;20053;-84
2023/12/09 03:50:41;;;;;;;138.23;65.38;;;;;;;5.39;80.78;101476.59;4989488;28;20491;-82
2023/12/09 03:53:07;;;;;;;135.80;67.82;;;;;;;4.92;80.67;101394.81;4982545;28;20483;-78
2023/12/09 03:55:34;;;;;;;148.43;73.22;;;;;;;4.94;80.60;101405.25;4977979;28;20396;-83
2023/12/09 03:58:04;;;;;;;141.20;66.22;;;;;;;5.20;81.00;101440.75;5009053;28;20076;-82
2023/12/09 04:00:31;;;;;;;142.27;67.13;;;;;;;5.23;81.68;101427.41;4980738;28;20064;-81
2023/12/09 04:02:58;;;;;;;146.05;67.10;;;;;;;5.01;81.62;101397.91;5005079;28;20053;-83
2023/12/09 04:05:25;;;;;;;146.52;70.30;;;;;;;5.35;80.99;101453.09;4987851;28;20297;-83
2023/12/09 04:07:55;;;;;;;137.95;67.35;;;;;;;5.38;81.33;101448.59;5000239;28;20537;-82
2023/12/09 04:10:22;;;;;;;152.18;67.75;;;;;;;4.72;81.18;101356.41;4996645;28;20837;-81
2023/12/09 04:12:50;;;;;;;145.48;71.05;;;;;;;5.40;81.08;101471.28;4997572;28;20278;-82
2023/12/09 04:15:19;;;;;;;148.20;68.00;;;;;;;5.01;81.16;101397.91;4986671;28;20046;-83
2023/12/09 04:17:46;;;;;;;147.13;67.55;;;;;;;5.18;80.54;101432.06;4994868;28;20512;-82
2023/12/09 04:20:13;;;;;;;147.25;68.18;;;;;;;5.45;80.73;101463.13;4981760;28;20253;-83
2023/12/09 04:22:40;;;;;;;137.32;65.90;;;;;;;5.45;80.59;101449.97;5012886;28;20060;-82
2023/12/09 04:25:08;;;;;;;133.27;64.72;;;;;;;5.33;80.33;101441.78;4988398;28;20057;-81
2023/12/09 04:27:35;;;;;;;133.70;65.35;;;;;;;5.52;80.30;101473.25;4987799;28;20041;-83
2023/12/09 04:30:05;;;;;;;140.15;65.47;;;;;;;5.58;80.72;101482.59;4997538;28;20136;-81
2023/12/09 04:32:32;;;;;;;139.48;66.10;;;;;;;5.60;79.71;101470.19;5014628;28;20107;-81
2023/12/09 04:35:03;;;;;;;132.30;62.28;;;;;;;5.60;80.23;101483.38;4996535;28;20395;-80
2023/12/09 04:37:36;;;;;;;135.77;63.35;;;;;;;5.58;79.46;101482.59;4996333;28;20056;-81
2023/12/09 04:40:05;;;;;;;134.30;65.03;;;;;;;5.61;79.53;101489.47;4989903;28;20119;-83
2023/12/09 04:42:31;;;;;;;135.77;66.78;;;;;;;5.46;79.77;101472.72;4993022;28;20045;-82
2023/12/09 04:44:58;;;;;;;139.63;64.57;;;;;;;5.14;79.35;101409.47;4987785;28;20248;-84
2023/12/09 04:47:25;;;;;;;132.38;65.80;;;;;;;5.19;79.37;101412.69;4991893;28;20041;-82
2023/12/09 04:49:52;;;;;;;118.85;64.05;;;;;;;5.53;79.45;101484.63;5001999;28;20052;-81
2023/12/09 04:52:23;;;;;;;124.32;61.88;;;;;;;5.55;79.31;101456.44;4982014;28;20140;-84
2023/12/09 04:54:50;;;;;;;122.75;59.85;;;;;;;5.74;78.42;101454.50;5005313;28;20302;-81
2023/12/09 04:57:17;;;;;;;119.75;59.47;;;;;;;5.63;78.35;101454.25;4983193;28;20050;-83
2023/12/09 04:59:44;;;;;;;121.25;61.70;;;;;;;5.45;78.38;101439.44;4976980;28;20419;-84
2023/12/09 05:02:15;;;;;;;113.32;55.75;;;;;;;5.50;78.21;101442.66;4994037;28;20057;-83
2023/12/09 05:04:43;;;;;;;122.47;62.50;;;;;;;5.44;77.82;101443.00;4998796;28;20179;-81
2023/12/09 05:07:12;;;;;;;120.10;59.20;;;;;;;5.59;78.05;101473.78;5015881;28;20346;-83
2023/12/09 05:09:39;;;;;;;113.70;55.10;;;;;;;5.60;77.73;101475.47;5011575;28;20443;-82
2023/12/09 05:12:09;;;;;;;117.57;56.20;;;;;;;5.51;78.09;101470.69;4990287;28;20077;-82
2023/12/09 05:14:36;;;;;;;117.88;60.33;;;;;;;5.27;78.89;101444.75;4984854;28;20081;-80
2023/12/09 05:17:03;;;;;;;121.43;56.55;;;;;;;5.16;78.80;101435.72;4990054;28;20141;-82
2023/12/09 05:19:30;;;;;;;114.47;58.97;;;;;;;5.30;79.09;101455.13;4997538;28;20045;-83
2023/12/09 05:21:57;;;;;;;113.47;56.47;;;;;;;5.35;79.06;101460.13;5026141;28;20060;-82
2023/12/09 05:24:24;;;;;;;109.53;54.30;;;;;;;5.33;78.44;101454.94;4990190;28;20045;-81
2023/12/09 05:26:51;;;;;;;103.00;54.03;;;;;;;5.36;78.87;101467.09;5005168;28;20049;-81
2023/12/09 05:29:17;;;;;;;99.97;53.88;;;;;;;5.42;78.45;101461.50;4968727;28;20140;-80
2023/12/09 05:31:44;;;;;;;107.85;56.40;;;;;;;4.82;78.21;101372.56;5008466;28;20060;-81
2023/12/09 05:34:15;;;;;;;113.97;58.95;;;;;;;5.26;78.60;101443.03;4987905;28;20053;-82
2023/12/09 05:36:41;;;;;;;115.63;59.05;;;;;;;5.29;78.61;101461.31;4994873;28;20059;-81
2023/12/09 05:39:11;;;;;;;110.40;55.78;;;;;;;4.95;78.62;101398.22;5007630;28;20227;-81
2023/12/09 05:41:44;;;;;;;113.82;57.67;;;;;;;5.10;78.90;101413.22;4998254;28;20487;-83
2023/12/09 05:44:10;;;;;;;119.60;57.67;;;;;;;5.26;80.05;101421.13;5006719;28;20388;-81
2023/12/09 05:46:40;;;;;;;110.28;55.58;;;;;;;5.20;80.19;101409.16;5005132;28;20061;-82
2023/12/09 05:49:11;;;;;;;113.97;59.03;;;;;;;5.32;80.25;101412.91;5002773;28;20229;-82
2023/12/09 05:51:42;;;;;;;118.75;59.65;;;;;;;5.06;80.71;101380.94;4993457;28;20041;-81
2023/12/09 05:54:12;;;;;;;118.75;59.60;;;;;;;5.10;80.64;101392.16;4997030;28;20057;-82
2023/12/09 05:56:47;;;;;;;114.30;57.22;;;;;;;5.12;79.74;101400.81;4998844;28;20140;-81
2023/12/09 05:59:14;;;;;;;115.35;61.20;;;;;;;5.25;79.72;101411.53;5001445;28;20041;-83
2023/12/09 06:01:42;;;;;;;114.07;60.65;;;;;;;4.99;80.10;101379.56;4991519;28;20243;-80
2023/12/09 06:04:09;;;;;;;116.53;57.63;;;;;;;5.15;80.00;101400.66;5002519;28;20048;-81
2023/12/09 06:06:35;;;;;;;119.00;59.58;;;;;;;5.29;79.11;101428.84;4970426;28;20407;-81
2023/12/09 06:09:02;;;;;;;119.20;59.30;;;;;;;5.34;79.17;101432.97;4998447;28;20046;-82
2023/12/09 06:11:29;;;;;;;124.95;61.50;;;;;;;4.99;79.23;101387.44;4979737;28;20456;-82
2023/12/09 06:13:57;;;;;;;121.97;59.67;;;;;;;4.83;79.99;101369.00;4973025;28;20483;-80
2023/12/09 06:16:24;;;;;;;131.20;64.47;;;;;;;5.26;80.37;101419.34;4988877;28;20419;-81
2023/12/09 06:18:51;;;;;;;125.30;60.80;;;;;;;5.19;80.46;101401.31;5000691;28;20049;-81
2023/12/09 06:21:23;;;;;;;113.95;59.30;;;;;;;4.56;80.63;101320.47;4998232;28;20096;-81
2023/12/09 06:23:51;;;;;;;120.22;58.53;;;;;;;5.02;81.11;101400.44;4984498;28;20419;-82
2023/12/09 06:26:20;;;;;;;120.43;58.50;;;;;;;4.84;81.20;101383.00;4985496;28;20045;-82
2023/12/09 06:28:46;;;;;;;111.40;55.30;;;;;;;5.02;81.41;101412.75;5001622;28;20050;-81
2023/12/09 06:31:14;;;;;;;112.65;58.47;;;;;;;4.72;81.04;101363.44;4987417;28;20279;-79
2023/12/09 06:33:40;;;;;;;121.50;61.13;;;;;;;4.83;80.86;101379.53;4993389;28;20045;-81
2023/12/09 06:36:08;;;;;;;121.95;59.75;;;;;;;5.01;79.94;101393.47;5001963;28;20063;-81
2023/12/09 06:38:42;;;;;;;121.07;61.13;;;;;;;4.66;80.45;101342.72;5018309;28;20088;-82
2023/12/09 06:41:09;;;;;;;124.18;60.08;;;;;;;5.09;80.21;101427.28;5015723;28;20057;-81
2023/12/09 06:43:36;;;;;;;120.90;59.35;;;;;;;5.05;79.80;101428.38;4999948;28;20441;-80
2023/12/09 06:46:03;;;;;;;117.63;58.63;;;;;;;5.12;80.19;101440.28;4993518;28;20055;-80
2023/12/09 06:48:30;;;;;;;117.22;57.97;;;;;;;5.12;79.77;101443.78;4992555;28;20422;-81
2023/12/09 06:50:57;;;;;;;110.82;56.92;;;;;;;5.15;79.61;101453.31;5004861;28;20057;-79
2023/12/09 06:53:24;;;;;;;122.20;60.42;;;;;;;5.13;79.56;101449.91;4992751;28;20050;-79
2023/12/09 06:55:50;;;;;;;114.50;58.28;;;;;;;5.17;78.94;101461.97;4990235;28;20095;-80
2023/12/09 06:58:20;;;;;;;127.22;59.17;;;;;;;5.19;78.85;101473.25;5002067;28;20388;-80
2023/12/09 07:00:47;;;;;;;124.40;60.08;;;;;;;5.21;78.52;101487.19;4997105;28;20048;-81
2023/12/09 07:03:17;;;;;;;115.00;57.88;;;;;;;4.97;79.04;101459.50;5002863;28;20049;-81
2023/12/09 07:05:46;;;;;;;116.38;59.05;;;;;;;5.15;79.00;101505.94;4992343;28;20057;-81
2023/12/09 07:08:13;;;;;;;118.32;57.90;;;;;;;5.14;78.44;101480.53;4985183;28;20139;-78
2023/12/09 07:10:44;;;;;;;115.30;60.05;;;;;;;5.06;78.95;101486.22;4996151;28;20061;-80
2023/12/09 07:13:11;;;;;;;117.00;60.17;;;;;;;5.16;78.59;101498.91;4986068;28;20046;-81
2023/12/09 07:15:37;;;;;;;114.15;58.78;;;;;;;5.10;79.42;101513.22;4985442;28;20400;-79
2023/12/09 07:18:04;;;;;;;123.32;61.63;;;;;;;4.95;79.53;101492.94;4983858;28;20269;-82
2023/12/09 07:20:33;;;;;;;118.40;60.42;;;;;;;5.20;79.46;101530.25;4974934;28;20041;-80
2023/12/09 07:23:00;;;;;;;119.25;61.25;;;;;;;5.19;79.72;101530.31;5001569;28;20103;-81
2023/12/09 07:25:28;;;;;;;124.88;64.18;;;;;;;5.05;79.72;101509.97;4996490;28;20045;-80
2023/12/09 07:27:55;;;;;;;116.47;57.53;;;;;;;4.96;79.75;101497.28;4989726;28;20317;-81
2023/12/09 07:30:23;;;;;;;115.13;60.90;;;;;;;4.99;80.14;101505.03;4990127;28;20045;-81
2023/12/09 07:32:50;;;;;;;109.45;56.88;;;;;;;5.23;79.92;101531.88;5008573;28;20045;-80
2023/12/09 07:35:17;;;;;;;113.90;58.72;;;;;;;5.20;80.58;101535.50;5037635;28;20340;-80
2023/12/09 07:37:44;;;;;;;111.43;59.03;;;;;;;5.11;80.78;101521.03;5012890;28;20518;-79
2023/12/09 07:40:15;;;;;;;109.93;56.78;;;;;;;5.30;80.25;101535.88;4996430;28;20065;-80
2023/12/09 07:42:42;;;;;;;117.68;58.42;;;;;;;5.30;79.98;101547.28;5011819;28;20490;-80
2023/12/09 07:45:09;;;;;;;114.40;57.88;;;;;;;5.30;80.18;101547.28;4997625;28;20557;-81
2023/12/09 07:47:36;;;;;;;120.03;60.50;;;;;;;5.24;80.87;101544.97;4998684;28;20056;-81
2023/12/09 07:50:03;;;;;;;121.57;61.45;;;;;;;5.31;80.66;101543.69;5002152;28;20081;-80
2023/12/09 07:52:33;;;;;;;115.53;57.60;;;;;;;5.39;80.55;101550.34;4994477;28;20061;-82
2023/12/09 07:54:59;;;;;;;116.15;60.88;;;;;;;5.47;79.77;101549.03;4981910;28;20410;-80
2023/12/09 07:57:27;;;;;;;122.55;59.25;;;;;;;5.39;79.66;101547.72;4966075;28;20250;-80
2023/12/09 07:59:57;;;;;;;115.25;57.30;;;;;;;5.31;79.15;101527.88;4992684;28;20045;-81
2023/12/09 08:02:25;;;;;;;114.43;57.20;;;;;;;5.44;79.70;101565.00;4994760;28;20524;-80
2023/12/09 08:04:56;;;;;;;115.40;55.83;;;;;;;5.52;78.33;101556.69;4979127;28;20049;-81
2023/12/09 08:07:25;;;;;;;110.93;57.08;;;;;;;5.43;78.22;101544.00;4984439;28;20367;-81
2023/12/09 08:09:54;;;;;;;111.53;56.33;;;;;;;5.16;78.81;101512.06;4997902;28;20115;-81
2023/12/09 08:12:21;;;;;;;109.30;54.15;;;;;;;5.01;79.02;101509.28;4981594;28;20038;-80
2023/12/09 08:14:48;;;;;;;107.43;53.55;;;;;;;5.37;79.59;101568.88;4997170;28;20856;-81
2023/12/09 08:17:16;;;;;;;99.78;54.15;;;;;;;5.38;79.11;101549.50;5000473;28;20466;-81
2023/12/09 08:19:42;;;;;;;103.07;55.95;;;;;;;5.18;78.70;101511.03;4975002;28;20411;-81
2023/12/09 08:22:13;;;;;;;108.68;54.38;;;;;;;5.50;79.00;101571.72;4991677;28;20428;-81
2023/12/09 08:24:43;;;;;;;106.90;54.10;;;;;;;5.41;78.60;101532.69;4996188;28;20045;-82
2023/12/09 08:27:09;;;;;;;115.05;58.08;;;;;;;5.50;79.49;101569.09;4974738;28;20963;-81
2023/12/09 08:29:36;;;;;;;104.80;53.95;;;;;;;5.39;79.22;101545.06;4979424;28;20369;-81
2023/12/09 08:32:03;;;;;;;110.60;55.10;;;;;;;5.31;79.29;101520.00;4984724;28;20398;-80
2023/12/09 08:34:32;;;;;;;103.07;53.78;;;;;;;5.50;78.90;101553.28;4995250;28;20061;-81
2023/12/09 08:36:59;;;;;;;110.18;54.88;;;;;;;5.43;79.16;101536.09;4991333;28;20049;-81
2023/12/09 08:39:26;;;;;;;97.85;53.22;;;;;;;5.64;78.86;101556.03;4994483;28;20365;-81
2023/12/09 08:41:53;;;;;;;110.60;53.88;;;;;;;5.58;79.37;101561.63;4997984;28;20311;-82
2023/12/09 08:44:21;;;;;;;109.45;54.47;;;;;;;5.62;79.80;101557.06;5000007;28;20408;-80
2023/12/09 08:46:47;;;;;;;108.47;54.63;;;;;;;5.80;78.90;101563.97;4987257;28;20060;-81
2023/12/09 08:49:14;;;;;;;109.97;55.63;;;;;;;5.85;78.80;101550.53;4996728;28;20081;-81
2023/12/09 08:51:45;;;;;;;109.75;53.75;;;;;;;5.90;78.95;101553.81;4990243;28;20510;-81
2023/12/09 08:54:13;;;;;;;107.60;53.63;;;;;;;5.81;78.66;101547.22;4976470;28;20046;-80
2023/12/09 08:56:40;;;;;;;117.78;54.55;;;;;;;6.00;78.21;101562.94;4987788;28;20057;-82
2023/12/09 08:59:10;;;;;;;109.18;54.83;;;;;;;6.05;78.14;101571.44;4988881;28;20414;-81
2023/12/09 09:01:39;;;;;;;108.18;53.65;;;;;;;6.13;77.28;101566.59;4997102;28;20064;-80
2023/12/09 09:04:06;;;;;;;107.10;53.45;;;;;;;6.03;76.74;101535.56;5000479;28;20108;-81
2023/12/09 09:06:33;;;;;;;114.20;56.25;;;;;;;5.94;77.65;101534.25;4992077;28;20480;-81
2023/12/09 09:09:04;;;;;;;105.50;52.53;;;;;;;6.20;77.16;101569.75;4990340;28;20053;-81
2023/12/09 09:11:36;;;;;;;117.95;55.97;;;;;;;6.03;76.85;101530.28;5000144;28;20132;-81
2023/12/09 09:14:05;;;;;;;108.10;56.35;;;;;;;5.80;77.54;101503.34;4998249;28;20095;-79
2023/12/09 09:16:32;;;;;;;110.97;54.60;;;;;;;6.31;77.86;101561.22;4989004;28;20073;-81
2023/12/09 09:19:02;;;;;;;110.13;53.17;;;;;;;6.25;77.01;101541.34;4976911;28;20057;-80
2023/12/09 09:21:28;;;;;;;111.38;52.83;;;;;;;6.19;76.95;101510.91;4985489;28;20460;-81
2023/12/09 09:23:59;;;;;;;115.38;55.13;;;;;;;5.96;76.05;101461.25;4978351;28;20256;-82
2023/12/09 09:26:26;;;;;;;114.75;54.92;;;;;;;6.37;76.34;101519.56;4994854;28;20475;-81
2023/12/09 09:28:53;;;;;;;117.93;55.95;;;;;;;6.46;75.71;101534.00;4993557;28;20132;-81
2023/12/09 09:31:20;;;;;;;124.35;57.38;;;;;;;6.53;76.11;101556.47;4991127;28;20404;-82
2023/12/09 09:33:48;;;;;;;127.07;57.35;;;;;;;6.40;75.71;101529.91;5006278;28;20181;-82
2023/12/09 09:36:18;;;;;;;119.32;55.83;;;;;;;6.61;75.24;101563.94;5017089;28;20348;-82
2023/12/09 09:38:48;;;;;;;110.72;51.40;;;;;;;6.58;75.19;101559.69;4982694;28;20274;-81
2023/12/09 09:41:22;;;;;;;119.47;54.95;;;;;;;6.51;75.61;101539.03;4997707;28;20048;-81
2023/12/09 09:43:58;;;;;;;120.95;57.45;;;;;;;6.68;75.55;101559.19;5030590;28;20052;-81
2023/12/09 09:46:26;;;;;;;120.55;55.40;;;;;;;6.79;74.51;101576.06;4955131;28;20134;-79
2023/12/09 09:48:56;;;;;;;122.30;56.47;;;;;;;6.67;75.03;101546.91;4997499;28;20250;-80
2023/12/09 09:51:28;;;;;;;124.90;58.83;;;;;;;6.83;75.65;101574.13;4973849;28;20439;-81
2023/12/09 09:54:21;;;;;;;123.35;57.70;;;;;;;6.83;74.55;101559.13;4998555;28;20446;-80
2023/12/09 09:56:51;;;;;;;130.23;56.08;;;;;;;6.84;74.90;101549.41;4991284;28;20470;-81
2023/12/09 09:59:20;;;;;;;120.32;56.10;;;;;;;6.93;75.32;101564.72;4979274;28;20533;-81
2023/12/09 10:01:47;;;;;;;115.88;55.90;;;;;;;6.95;74.86;101552.28;5000238;28;20226;-81
2023/12/09 10:04:14;;;;;;;120.82;58.42;;;;;;;7.12;74.76;101566.31;4975798;28;20451;-81
2023/12/09 10:06:46;;;;;;;127.30;56.72;;;;;;;7.05;74.56;101561.38;4998035;28;20053;-81
2023/12/09 10:09:13;;;;;;;121.40;57.17;;;;;;;7.09;74.37;101550.63;4976409;28;20073;-80
2023/12/09 10:11:40;;;;;;;123.32;54.85;;;;;;;6.69;73.86;101471.16;4990158;28;20052;-81
2023/12/09 10:14:12;;;;;;;116.88;51.80;;;;;;;7.02;73.83;101523.75;4983946;28;20057;-81
2023/12/09 10:16:45;;;;;;;110.82;51.15;;;;;;;7.10;73.48;101529.41;4985209;28;20042;-81
2023/12/09 10:19:14;;;;;;;117.18;55.67;;;;;;;7.10;73.42;101523.28;4991489;28;20069;-81
2023/12/09 10:21:42;;;;;;;123.32;55.83;;;;;;;7.06;73.82;101512.91;4980983;28;20053;-81
2023/12/09 10:24:11;;;;;;;112.43;53.22;;;;;;;7.22;73.55;101517.28;4976643;28;20119;-81
2023/12/09 10:26:41;;;;;;;119.75;54.05;;;;;;;7.04;73.97;101488.38;4992552;28;20293;-79
2023/12/09 10:29:08;;;;;;;127.78;55.50;;;;;;;6.90;73.30;101456.69;4986474;28;20064;-80
2023/12/09 10:31:35;;;;;;;118.35;54.72;;;;;;;7.09;73.78;101492.53;4992957;28;20053;-81
2023/12/09 10:34:03;;;;;;;114.25;53.35;;;;;;;6.62;73.57;101418.72;4982969;28;20084;-80
2023/12/09 10:36:30;;;;;;;121.22;53.83;;;;;;;7.20;73.48;101508.59;4977501;28;20433;-81
2023/12/09 10:38:58;;;;;;;122.15;57.13;;;;;;;7.26;73.90;101508.22;4977323;28;20568;-80
2023/12/09 10:41:28;;;;;;;119.13;56.55;;;;;;;7.11;73.68;101477.44;4971121;28;20179;-81
2023/12/09 10:43:55;;;;;;;120.72;56.28;;;;;;;7.35;73.84;101520.00;4981949;28;20041;-80
2023/12/09 10:46:22;;;;;;;119.35;55.90;;;;;;;7.22;73.16;101482.94;4984084;28;20049;-81
2023/12/09 10:48:51;;;;;;;115.13;56.22;;;;;;;7.21;73.67;101499.75;4996335;28;20050;-81
2023/12/09 10:51:18;;;;;;;115.85;54.38;;;;;;;7.06;73.52;101475.94;4985067;28;20562;-82
2023/12/09 10:53:45;;;;;;;109.97;53.75;;;;;;;7.24;73.74;101507.47;4984535;28;20467;-80
2023/12/09 10:56:17;;;;;;;123.35;55.88;;;;;;;7.39;73.08;101516.25;4966482;28;20061;-82
2023/12/09 10:58:49;;;;;;;126.30;57.15;;;;;;;7.28;73.98;101516.88;4975929;28;20133;-81
2023/12/09 11:01:16;;;;;;;124.60;56.25;;;;;;;7.36;73.89;101530.50;4985946;28;20045;-81
2023/12/09 11:03:43;;;;;;;124.28;55.05;;;;;;;7.20;74.06;101493.59;4989547;28;20137;-81
2023/12/09 11:06:12;;;;;;;111.32;53.67;;;;;;;7.40;74.21;101510.88;4991630;28;20779;-81
2023/12/09 11:08:40;;;;;;;124.47;56.38;;;;;;;7.48;74.78;101513.91;4992956;28;20060;-80
2023/12/09 11:11:12;;;;;;;134.80;61.60;;;;;;;7.26;74.37;101476.53;4993669;28;20045;-81
2023/12/09 11:13:48;;;;;;;126.30;59.47;;;;;;;7.50;74.52;101497.97;4981488;28;20069;-81
2023/12/09 11:16:18;;;;;;;132.50;59.22;;;;;;;7.46;74.38;101502.56;4998792;28;20045;-81
2023/12/09 11:18:50;;;;;;;120.30;58.10;;;;;;;7.59;74.70;101512.38;4993751;28;20476;-81